Goodyears Bar, California
Current Conditions -  °F | °C
As of 6:52 AM on Saturday 20 Dec 2014 (Local Time) from KBLU Reporting Station
Moderate Fog Moderate Fog  
Wind Chill: 34°   Ceiling: 300
Heat Index: 38°   Visibility: 0.5mi
Dew Point: 36°   Wind: 5mph
Humidity: 93%   Direction: 200°SSW
Pressure: 30.15"   Gusts: NA
Location:  39.54°N, 120.88°W
Report Text: KBLU 201452Z AUTO 20004KT 1/2SM FG VV003 03/02 A3015 RMK AO2 RAE1353B27E52 SLP203 P0001 60006 T00330022 50004
Loading
Personal Weather Stations






























Interactive Weather Map New forecast layout! Learn more

10-Day Weather Forecast

Advertisements
Track Severe Weather on mobile